UAE659 VRMM-OMDB
Flight info
| Callsign | UAE659 |
|---|---|
| Flight time | 3h 46m |
| Altitude | 40000 |
| Route | ELBET1A ELBET L894 KITAL P570 ITURA M762 VAXAS/N0428F240 M762 MIVEK P574 IMPED |
| Aircraft | A359/H-SDE2E3GHIJ3J4J5LM1ORWXY/LB1D1 |
Departure
| Time | 2026-04-26 15:08 |
|---|---|
| Airport | Velana International Airport (VRMM) |
Arrival
| Time | 2026-04-26 18:54 |
|---|---|
| Airport | Dubai International Airport (OMDB) |
| Time | Latitude | Longitude | Altitude | Speed | Heading |
|---|---|---|---|---|---|
| 2026-04-26 14:57 | 4.18554 | 73.52800 | 24 ft | 0 kts | 269° |
| 2026-04-26 15:03 | 4.18554 | 73.52810 | 24 ft | 4 kts | 265° |
| 2026-04-26 15:03 | 4.18560 | 73.52835 | 23 ft | 4 kts | 239° |
| 2026-04-26 15:03 | 4.18578 | 73.52854 | 23 ft | 4 kts | 201° |
| 2026-04-26 15:04 | 4.18598 | 73.52858 | 20 ft | 1 kts | 178° |
| 2026-04-26 15:04 | 4.18602 | 73.52858 | 20 ft | 0 kts | 178° |
| 2026-04-26 15:06 | 4.18595 | 73.52858 | 20 ft | 5 kts | 179° |
| 2026-04-26 15:06 | 4.18512 | 73.52872 | 25 ft | 18 kts | 142° |
| 2026-04-26 15:06 | 4.18503 | 73.52964 | 22 ft | 15 kts | 54° |
| 2026-04-26 15:07 | 4.18800 | 73.53104 | 26 ft | 58 kts | 360° |
| 2026-04-26 15:07 | 4.19490 | 73.53105 | 23 ft | 137 kts | 0° |
| 2026-04-26 15:07 | 4.20639 | 73.53101 | 309 ft | 180 kts | 360° |
| 2026-04-26 15:08 | 4.21942 | 73.53109 | 1158 ft | 192 kts | 359° |
| 2026-04-26 15:08 | 4.23360 | 73.53111 | 1781 ft | 218 kts | 360° |
| 2026-04-26 15:08 | 4.24996 | 73.53112 | 2208 ft | 248 kts | 360° |
| 2026-04-26 15:08 | 4.26769 | 73.53113 | 3006 ft | 258 kts | 0° |
| 2026-04-26 15:09 | 4.28579 | 73.53117 | 3959 ft | 263 kts | 1° |
| 2026-04-26 15:09 | 4.30425 | 73.53120 | 4897 ft | 268 kts | 1° |
| 2026-04-26 15:09 | 4.32304 | 73.53123 | 5805 ft | 272 kts | 2° |
| 2026-04-26 15:09 | 4.34208 | 73.53123 | 6725 ft | 276 kts | 2° |
| 2026-04-26 15:10 | 4.36118 | 73.53121 | 7644 ft | 280 kts | 2° |
| 2026-04-26 15:10 | 4.37438 | 73.53120 | 8284 ft | 282 kts | 2° |
| 2026-04-26 15:10 | 4.40084 | 73.53113 | 9606 ft | 287 kts | 1° |
| 2026-04-26 15:10 | 4.42063 | 73.52814 | 10386 ft | 300 kts | 344° |
| 2026-04-26 15:11 | 4.43951 | 73.51740 | 10768 ft | 327 kts | 323° |
| 2026-04-26 15:11 | 4.45730 | 73.50210 | 11254 ft | 344 kts | 320° |
| 2026-04-26 15:11 | 4.47538 | 73.48587 | 12004 ft | 351 kts | 320° |
| 2026-04-26 15:11 | 4.49377 | 73.46953 | 12799 ft | 356 kts | 321° |
| 2026-04-26 15:12 | 4.51254 | 73.45302 | 13590 ft | 361 kts | 321° |
| 2026-04-26 15:12 | 4.53162 | 73.43635 | 14307 ft | 365 kts | 321° |
| 2026-04-26 15:12 | 4.55093 | 73.41953 | 15020 ft | 369 kts | 321° |
| 2026-04-26 15:12 | 4.57044 | 73.40257 | 15736 ft | 373 kts | 321° |
| 2026-04-26 15:13 | 4.59020 | 73.38543 | 16434 ft | 377 kts | 321° |
| 2026-04-26 15:13 | 4.61012 | 73.36817 | 17123 ft | 381 kts | 321° |
| 2026-04-26 15:13 | 4.63032 | 73.35065 | 17815 ft | 385 kts | 321° |
| 2026-04-26 15:13 | 4.65067 | 73.33301 | 18458 ft | 389 kts | 321° |
| 2026-04-26 15:14 | 4.67127 | 73.31514 | 19031 ft | 393 kts | 321° |
| 2026-04-26 15:14 | 4.69210 | 73.29707 | 19605 ft | 398 kts | 321° |
| 2026-04-26 15:14 | 4.71286 | 73.27910 | 20166 ft | 402 kts | 321° |
| 2026-04-26 15:14 | 4.73436 | 73.26040 | 20795 ft | 406 kts | 320° |
| 2026-04-26 15:15 | 4.75556 | 73.24195 | 21399 ft | 410 kts | 320° |
| 2026-04-26 15:15 | 4.77721 | 73.22312 | 22022 ft | 414 kts | 320° |
| 2026-04-26 15:15 | 4.79908 | 73.20409 | 22629 ft | 419 kts | 320° |
| 2026-04-26 15:15 | 4.82121 | 73.18484 | 23222 ft | 423 kts | 320° |
| 2026-04-26 15:16 | 4.84358 | 73.16539 | 23751 ft | 427 kts | 319° |
| 2026-04-26 15:16 | 4.86621 | 73.14573 | 24236 ft | 432 kts | 319° |
| 2026-04-26 15:16 | 4.88909 | 73.12583 | 24725 ft | 437 kts | 319° |
| 2026-04-26 15:16 | 4.91220 | 73.10575 | 25261 ft | 442 kts | 319° |
| 2026-04-26 15:17 | 4.93560 | 73.08543 | 25784 ft | 447 kts | 319° |
| 2026-04-26 15:17 | 4.95117 | 73.07190 | 26130 ft | 450 kts | 319° |
| 2026-04-26 15:17 | 4.98310 | 73.04416 | 26831 ft | 457 kts | 319° |
| 2026-04-26 15:17 | 5.00730 | 73.02311 | 27348 ft | 462 kts | 318° |
| 2026-04-26 15:18 | 5.03167 | 73.00190 | 27870 ft | 466 kts | 318° |
| 2026-04-26 15:18 | 5.05628 | 72.98048 | 28376 ft | 471 kts | 318° |
| 2026-04-26 15:18 | 5.08118 | 72.95880 | 28882 ft | 476 kts | 318° |
| 2026-04-26 15:18 | 5.10633 | 72.93691 | 29376 ft | 480 kts | 317° |
| 2026-04-26 15:19 | 5.13167 | 72.91484 | 29849 ft | 485 kts | 317° |
| 2026-04-26 15:19 | 5.15696 | 72.89283 | 30257 ft | 489 kts | 317° |
| 2026-04-26 15:19 | 5.18274 | 72.87039 | 30717 ft | 492 kts | 317° |
| 2026-04-26 15:19 | 5.20867 | 72.84782 | 31149 ft | 495 kts | 317° |
| 2026-04-26 15:20 | 5.23476 | 72.82510 | 31589 ft | 498 kts | 317° |
| 2026-04-26 15:20 | 5.26105 | 72.80222 | 32030 ft | 501 kts | 317° |
| 2026-04-26 15:20 | 5.28750 | 72.77918 | 32449 ft | 504 kts | 317° |
| 2026-04-26 15:20 | 5.31410 | 72.75603 | 32853 ft | 507 kts | 317° |
| 2026-04-26 15:21 | 5.34080 | 72.73277 | 33243 ft | 510 kts | 316° |
| 2026-04-26 15:21 | 5.36768 | 72.70936 | 33635 ft | 513 kts | 317° |
| 2026-04-26 15:21 | 5.39473 | 72.68580 | 33985 ft | 516 kts | 316° |
| 2026-04-26 15:21 | 5.42189 | 72.66217 | 34284 ft | 518 kts | 317° |
| 2026-04-26 15:22 | 5.44918 | 72.63843 | 34625 ft | 520 kts | 316° |
| 2026-04-26 15:22 | 5.47653 | 72.61464 | 35083 ft | 518 kts | 316° |
| 2026-04-26 15:22 | 5.50371 | 72.59096 | 35610 ft | 515 kts | 316° |
| 2026-04-26 15:22 | 5.53073 | 72.56741 | 36109 ft | 513 kts | 316° |
| 2026-04-26 15:23 | 5.55758 | 72.54402 | 36554 ft | 512 kts | 316° |
| 2026-04-26 15:23 | 5.58445 | 72.52058 | 36976 ft | 511 kts | 315° |
| 2026-04-26 15:23 | 5.61124 | 72.49722 | 37385 ft | 510 kts | 315° |
| 2026-04-26 15:23 | 5.63800 | 72.47388 | 37811 ft | 509 kts | 315° |
| 2026-04-26 15:24 | 5.66466 | 72.45062 | 38217 ft | 507 kts | 315° |
| 2026-04-26 15:24 | 5.69126 | 72.42742 | 38628 ft | 506 kts | 315° |
| 2026-04-26 15:24 | 5.71776 | 72.40429 | 38969 ft | 504 kts | 315° |
| 2026-04-26 15:24 | 5.74421 | 72.38121 | 39342 ft | 502 kts | 315° |
| 2026-04-26 15:25 | 5.77049 | 72.35828 | 39691 ft | 500 kts | 315° |
| 2026-04-26 15:25 | 5.78784 | 72.34313 | 39879 ft | 499 kts | 315° |
| 2026-04-26 15:25 | 5.84936 | 72.28941 | 39967 ft | 506 kts | 315° |
| 2026-04-26 15:26 | 5.90256 | 72.24296 | 39967 ft | 507 kts | 315° |
| 2026-04-26 15:26 | 5.95588 | 72.19642 | 39967 ft | 507 kts | 315° |
| 2026-04-26 15:27 | 6.00906 | 72.14997 | 39969 ft | 507 kts | 315° |
| 2026-04-26 15:27 | 6.06227 | 72.10345 | 39967 ft | 507 kts | 315° |
| 2026-04-26 15:28 | 6.11549 | 72.05694 | 39964 ft | 507 kts | 315° |
| 2026-04-26 15:28 | 6.16841 | 72.01070 | 39964 ft | 507 kts | 315° |
| 2026-04-26 15:29 | 6.22160 | 71.96419 | 39967 ft | 506 kts | 315° |
| 2026-04-26 15:30 | 6.32793 | 71.87115 | 39971 ft | 507 kts | 315° |
| 2026-04-26 15:30 | 6.38094 | 71.82480 | 39969 ft | 507 kts | 316° |
| 2026-04-26 15:31 | 6.46462 | 71.75903 | 39968 ft | 509 kts | 320° |
| 2026-04-26 15:32 | 6.53059 | 71.70862 | 39969 ft | 509 kts | 319° |
| 2026-04-26 15:32 | 6.60527 | 71.65045 | 39968 ft | 509 kts | 319° |
| 2026-04-26 15:33 | 6.66089 | 71.60682 | 39970 ft | 509 kts | 319° |
| 2026-04-26 15:33 | 6.71683 | 71.56292 | 39972 ft | 509 kts | 319° |
| 2026-04-26 15:34 | 6.77276 | 71.51904 | 39971 ft | 510 kts | 319° |
| 2026-04-26 15:34 | 6.82877 | 71.47510 | 39971 ft | 510 kts | 318° |
| 2026-04-26 15:35 | 6.88472 | 71.43118 | 39971 ft | 510 kts | 319° |
| 2026-04-26 15:35 | 6.94073 | 71.38725 | 39971 ft | 510 kts | 319° |
| 2026-04-26 15:36 | 6.99676 | 71.34328 | 39968 ft | 510 kts | 319° |
| 2026-04-26 15:36 | 7.05239 | 71.29954 | 39968 ft | 510 kts | 318° |
| 2026-04-26 15:37 | 7.10837 | 71.25548 | 39969 ft | 510 kts | 318° |
| 2026-04-26 15:37 | 7.16436 | 71.21146 | 39968 ft | 510 kts | 318° |
| 2026-04-26 15:38 | 7.22031 | 71.16748 | 39970 ft | 510 kts | 319° |
| 2026-04-26 15:38 | 7.27607 | 71.12371 | 39966 ft | 510 kts | 319° |
| 2026-04-26 15:39 | 7.33207 | 71.07973 | 39966 ft | 510 kts | 319° |
| 2026-04-26 15:39 | 7.36953 | 71.05028 | 39965 ft | 510 kts | 319° |
| 2026-04-26 15:40 | 7.44397 | 70.99168 | 39969 ft | 510 kts | 319° |
| 2026-04-26 15:40 | 7.49996 | 70.94759 | 39969 ft | 510 kts | 319° |
| 2026-04-26 15:41 | 7.55554 | 70.90382 | 39968 ft | 510 kts | 318° |
| 2026-04-26 15:41 | 7.61152 | 70.85960 | 39972 ft | 510 kts | 319° |
| 2026-04-26 15:42 | 7.66755 | 70.81535 | 39968 ft | 511 kts | 319° |
| 2026-04-26 15:42 | 7.71412 | 70.77860 | 39969 ft | 511 kts | 319° |
| 2026-04-26 15:43 | 7.77929 | 70.72716 | 39968 ft | 511 kts | 319° |
| 2026-04-26 15:44 | 7.85425 | 70.66795 | 39968 ft | 511 kts | 319° |
| 2026-04-26 15:44 | 7.93791 | 70.60181 | 39972 ft | 511 kts | 319° |
| 2026-04-26 15:45 | 8.02197 | 70.53534 | 39971 ft | 511 kts | 319° |
| 2026-04-26 15:46 | 8.10599 | 70.46885 | 39968 ft | 511 kts | 319° |
| 2026-04-26 15:46 | 8.15253 | 70.43202 | 39971 ft | 511 kts | 319° |
| 2026-04-26 15:47 | 8.24560 | 70.35832 | 39976 ft | 511 kts | 319° |
| 2026-04-26 15:48 | 8.30145 | 70.31406 | 39973 ft | 510 kts | 319° |
| 2026-04-26 15:48 | 8.35736 | 70.26973 | 39973 ft | 510 kts | 319° |
| 2026-04-26 15:49 | 8.41322 | 70.22543 | 39966 ft | 510 kts | 319° |
| 2026-04-26 15:49 | 8.46875 | 70.18138 | 39972 ft | 510 kts | 319° |
| 2026-04-26 15:50 | 8.52446 | 70.13720 | 39973 ft | 508 kts | 319° |
| 2026-04-26 15:50 | 8.58016 | 70.09300 | 39974 ft | 508 kts | 319° |
| 2026-04-26 15:51 | 8.63581 | 70.04879 | 39973 ft | 508 kts | 319° |
| 2026-04-26 15:51 | 8.69140 | 70.00463 | 39973 ft | 508 kts | 319° |
| 2026-04-26 15:52 | 8.74668 | 69.96069 | 39973 ft | 508 kts | 319° |
| 2026-04-26 15:52 | 8.80224 | 69.91652 | 39970 ft | 508 kts | 319° |
| 2026-04-26 15:53 | 8.85779 | 69.87235 | 39970 ft | 508 kts | 319° |
| 2026-04-26 15:53 | 8.91331 | 69.82816 | 39972 ft | 507 kts | 319° |
| 2026-04-26 15:54 | 8.96870 | 69.78406 | 39973 ft | 507 kts | 319° |
| 2026-04-26 15:54 | 9.02422 | 69.73986 | 39973 ft | 507 kts | 319° |
| 2026-04-26 15:55 | 9.07959 | 69.69575 | 39971 ft | 507 kts | 319° |
| 2026-04-26 15:55 | 9.13504 | 69.65154 | 39971 ft | 507 kts | 319° |
| 2026-04-26 15:56 | 9.19011 | 69.60757 | 39971 ft | 507 kts | 319° |
| 2026-04-26 15:56 | 9.24550 | 69.56336 | 39971 ft | 507 kts | 319° |
| 2026-04-26 15:57 | 9.30093 | 69.51913 | 39971 ft | 507 kts | 319° |
| 2026-04-26 15:57 | 9.35630 | 69.47500 | 39967 ft | 506 kts | 319° |
| 2026-04-26 15:58 | 9.41159 | 69.43088 | 39968 ft | 506 kts | 319° |
| 2026-04-26 15:58 | 9.46694 | 69.38667 | 39971 ft | 506 kts | 319° |
| 2026-04-26 15:59 | 9.52224 | 69.34247 | 39973 ft | 506 kts | 319° |
| 2026-04-26 15:59 | 9.57750 | 69.29829 | 39970 ft | 506 kts | 319° |
| 2026-04-26 16:00 | 9.63275 | 69.25408 | 39970 ft | 506 kts | 319° |
| 2026-04-26 16:00 | 9.68776 | 69.21003 | 39973 ft | 506 kts | 319° |
| 2026-04-26 16:01 | 9.74306 | 69.16579 | 39973 ft | 505 kts | 319° |
| 2026-04-26 16:01 | 9.79818 | 69.12163 | 39975 ft | 504 kts | 319° |
| 2026-04-26 16:02 | 9.85328 | 69.07741 | 39973 ft | 505 kts | 319° |
| 2026-04-26 16:02 | 9.90800 | 69.03348 | 39980 ft | 504 kts | 319° |
| 2026-04-26 16:03 | 9.96310 | 68.98913 | 39963 ft | 505 kts | 319° |
| 2026-04-26 16:03 | 10.01823 | 68.94478 | 39960 ft | 505 kts | 319° |
| 2026-04-26 16:04 | 10.07332 | 68.90051 | 39962 ft | 505 kts | 319° |
| 2026-04-26 16:04 | 10.12852 | 68.85616 | 39968 ft | 505 kts | 319° |
| 2026-04-26 16:05 | 10.18352 | 68.81187 | 39985 ft | 505 kts | 319° |
| 2026-04-26 16:05 | 10.23823 | 68.76787 | 39974 ft | 505 kts | 319° |
| 2026-04-26 16:06 | 10.29337 | 68.72360 | 39977 ft | 504 kts | 319° |
| 2026-04-26 16:06 | 10.34844 | 68.67931 | 39982 ft | 505 kts | 319° |
| 2026-04-26 16:07 | 10.40351 | 68.63494 | 39978 ft | 504 kts | 319° |
| 2026-04-26 16:07 | 10.45855 | 68.59058 | 39976 ft | 504 kts | 319° |
| 2026-04-26 16:08 | 10.51355 | 68.54619 | 39972 ft | 504 kts | 319° |
| 2026-04-26 16:08 | 10.56812 | 68.50214 | 39976 ft | 504 kts | 319° |
| 2026-04-26 16:09 | 10.62302 | 68.45783 | 39978 ft | 504 kts | 319° |
| 2026-04-26 16:09 | 10.67803 | 68.41348 | 39976 ft | 504 kts | 319° |
| 2026-04-26 16:10 | 10.73301 | 68.36906 | 39978 ft | 504 kts | 319° |
| 2026-04-26 16:10 | 10.78804 | 68.32447 | 39978 ft | 505 kts | 319° |
| 2026-04-26 16:11 | 10.84272 | 68.28026 | 39976 ft | 504 kts | 319° |
| 2026-04-26 16:11 | 10.89773 | 68.23583 | 39978 ft | 504 kts | 319° |
| 2026-04-26 16:12 | 10.95269 | 68.19132 | 39978 ft | 505 kts | 318° |
| 2026-04-26 16:12 | 11.03518 | 68.12442 | 39974 ft | 505 kts | 319° |
| 2026-04-26 16:13 | 11.09013 | 68.07979 | 39973 ft | 505 kts | 318° |
| 2026-04-26 16:13 | 11.14488 | 68.03541 | 39974 ft | 505 kts | 319° |
| 2026-04-26 16:14 | 11.19992 | 67.99083 | 39981 ft | 506 kts | 319° |
| 2026-04-26 16:15 | 11.28264 | 67.92378 | 39976 ft | 506 kts | 319° |
| 2026-04-26 16:15 | 11.33777 | 67.87896 | 39975 ft | 506 kts | 318° |
| 2026-04-26 16:16 | 11.41998 | 67.81208 | 39974 ft | 506 kts | 319° |
| 2026-04-26 16:16 | 11.47509 | 67.76729 | 39975 ft | 506 kts | 319° |
| 2026-04-26 16:17 | 11.53023 | 67.72244 | 39978 ft | 507 kts | 319° |
| 2026-04-26 16:17 | 11.58528 | 67.67762 | 39975 ft | 506 kts | 319° |
| 2026-04-26 16:18 | 11.66783 | 67.61034 | 39975 ft | 506 kts | 319° |
| 2026-04-26 16:19 | 11.74998 | 67.54339 | 39972 ft | 506 kts | 319° |
| 2026-04-26 16:20 | 11.83267 | 67.47590 | 39979 ft | 507 kts | 319° |
| 2026-04-26 16:20 | 11.91528 | 67.40844 | 39975 ft | 507 kts | 319° |
| 2026-04-26 16:21 | 11.97040 | 67.36333 | 39974 ft | 507 kts | 319° |
| 2026-04-26 16:21 | 12.02545 | 67.31838 | 39975 ft | 507 kts | 319° |
| 2026-04-26 16:22 | 12.08052 | 67.27329 | 39977 ft | 507 kts | 319° |
| 2026-04-26 16:22 | 12.13523 | 67.22861 | 39977 ft | 506 kts | 319° |
| 2026-04-26 16:23 | 12.19018 | 67.18362 | 39975 ft | 504 kts | 319° |
| 2026-04-26 16:23 | 12.24476 | 67.13884 | 39976 ft | 503 kts | 319° |
| 2026-04-26 16:24 | 12.29935 | 67.09407 | 39977 ft | 502 kts | 319° |
| 2026-04-26 16:24 | 12.35389 | 67.04936 | 39977 ft | 502 kts | 319° |
| 2026-04-26 16:25 | 12.40843 | 67.00466 | 39977 ft | 503 kts | 319° |
| 2026-04-26 16:25 | 12.46294 | 66.95988 | 39978 ft | 502 kts | 319° |
| 2026-04-26 16:26 | 12.50817 | 66.92269 | 39973 ft | 500 kts | 319° |
| 2026-04-26 16:26 | 12.57126 | 66.87089 | 39973 ft | 499 kts | 319° |
| 2026-04-26 16:27 | 12.62526 | 66.82639 | 39975 ft | 497 kts | 319° |
| 2026-04-26 16:27 | 12.67924 | 66.78189 | 39974 ft | 498 kts | 319° |
| 2026-04-26 16:28 | 12.73329 | 66.73745 | 39979 ft | 498 kts | 319° |
| 2026-04-26 16:28 | 12.77823 | 66.70051 | 39980 ft | 497 kts | 319° |
| 2026-04-26 16:29 | 12.84089 | 66.64890 | 39976 ft | 497 kts | 319° |
| 2026-04-26 16:29 | 12.89474 | 66.60444 | 39979 ft | 496 kts | 319° |
| 2026-04-26 16:30 | 12.93942 | 66.56754 | 39986 ft | 496 kts | 319° |
| 2026-04-26 16:30 | 12.99318 | 66.52320 | 39981 ft | 495 kts | 319° |
| 2026-04-26 16:31 | 13.04679 | 66.47888 | 39982 ft | 495 kts | 319° |
| 2026-04-26 16:31 | 13.10040 | 66.43454 | 39975 ft | 494 kts | 319° |
| 2026-04-26 16:32 | 13.15401 | 66.39019 | 39975 ft | 495 kts | 319° |
| 2026-04-26 16:32 | 13.20776 | 66.34582 | 39977 ft | 495 kts | 319° |
| 2026-04-26 16:33 | 13.26147 | 66.30144 | 39979 ft | 495 kts | 319° |
| 2026-04-26 16:33 | 13.31507 | 66.25704 | 39975 ft | 495 kts | 319° |
| 2026-04-26 16:34 | 13.36863 | 66.21255 | 39985 ft | 496 kts | 319° |
| 2026-04-26 16:34 | 13.42239 | 66.16796 | 39976 ft | 497 kts | 319° |
| 2026-04-26 16:35 | 13.47588 | 66.12362 | 39983 ft | 496 kts | 319° |
| 2026-04-26 16:35 | 13.52951 | 66.07905 | 39976 ft | 496 kts | 319° |
| 2026-04-26 16:36 | 13.58329 | 66.03435 | 39976 ft | 497 kts | 319° |
| 2026-04-26 16:36 | 13.63714 | 65.98961 | 39981 ft | 497 kts | 319° |
| 2026-04-26 16:37 | 13.69088 | 65.94490 | 39984 ft | 497 kts | 319° |
| 2026-04-26 16:37 | 13.74462 | 65.90016 | 39978 ft | 496 kts | 320° |
| 2026-04-26 16:38 | 13.79812 | 65.85560 | 39980 ft | 495 kts | 320° |
| 2026-04-26 16:38 | 13.85135 | 65.81122 | 39976 ft | 495 kts | 319° |
| 2026-04-26 16:39 | 13.90491 | 65.76655 | 39981 ft | 495 kts | 320° |
| 2026-04-26 16:39 | 13.95844 | 65.72187 | 39983 ft | 495 kts | 320° |
| 2026-04-26 16:40 | 14.01181 | 65.67732 | 39980 ft | 494 kts | 320° |
| 2026-04-26 16:40 | 14.06532 | 65.63261 | 39978 ft | 494 kts | 320° |
| 2026-04-26 16:41 | 14.11846 | 65.58822 | 39977 ft | 495 kts | 320° |
| 2026-04-26 16:41 | 14.17186 | 65.54360 | 39974 ft | 495 kts | 320° |
| 2026-04-26 16:42 | 14.22529 | 65.49887 | 39974 ft | 495 kts | 320° |
| 2026-04-26 16:42 | 14.27870 | 65.45414 | 39980 ft | 494 kts | 320° |
| 2026-04-26 16:43 | 14.33212 | 65.40937 | 39968 ft | 494 kts | 320° |
| 2026-04-26 16:43 | 14.38549 | 65.36464 | 39981 ft | 494 kts | 320° |
| 2026-04-26 16:44 | 14.43875 | 65.31995 | 39982 ft | 494 kts | 320° |
| 2026-04-26 16:44 | 14.49173 | 65.27546 | 39982 ft | 494 kts | 320° |
| 2026-04-26 16:45 | 14.54512 | 65.23061 | 39981 ft | 493 kts | 320° |
| 2026-04-26 16:45 | 14.59835 | 65.18587 | 39982 ft | 493 kts | 320° |
| 2026-04-26 16:46 | 14.65153 | 65.14112 | 39977 ft | 493 kts | 320° |
| 2026-04-26 16:46 | 14.70464 | 65.09636 | 39979 ft | 493 kts | 320° |
| 2026-04-26 16:47 | 14.75783 | 65.05150 | 39986 ft | 493 kts | 320° |
| 2026-04-26 16:47 | 14.81097 | 65.00667 | 39976 ft | 493 kts | 320° |
| 2026-04-26 16:48 | 14.86383 | 64.96207 | 39983 ft | 493 kts | 320° |
| 2026-04-26 16:48 | 14.91689 | 64.91727 | 39980 ft | 493 kts | 320° |
| 2026-04-26 16:49 | 14.97007 | 64.87233 | 39978 ft | 494 kts | 320° |
| 2026-04-26 16:49 | 15.02329 | 64.82732 | 39986 ft | 494 kts | 320° |
| 2026-04-26 16:50 | 15.07651 | 64.78227 | 39980 ft | 493 kts | 320° |
| 2026-04-26 16:50 | 15.12968 | 64.73726 | 39906 ft | 491 kts | 320° |
| 2026-04-26 16:51 | 15.18230 | 64.69268 | 39893 ft | 493 kts | 320° |
| 2026-04-26 16:51 | 15.23540 | 64.64766 | 39889 ft | 494 kts | 320° |
| 2026-04-26 16:52 | 15.27963 | 64.61013 | 39889 ft | 494 kts | 320° |
| 2026-04-26 16:52 | 15.34185 | 64.55730 | 39889 ft | 495 kts | 320° |
| 2026-04-26 16:53 | 15.39504 | 64.51211 | 39886 ft | 494 kts | 320° |
| 2026-04-26 16:53 | 15.44828 | 64.46685 | 39886 ft | 495 kts | 320° |
| 2026-04-26 16:54 | 15.50151 | 64.42157 | 39885 ft | 495 kts | 320° |
| 2026-04-26 16:54 | 15.55449 | 64.37646 | 39883 ft | 496 kts | 320° |
| 2026-04-26 16:55 | 15.60785 | 64.33099 | 39884 ft | 496 kts | 320° |
| 2026-04-26 16:55 | 15.66118 | 64.28550 | 39883 ft | 496 kts | 320° |
| 2026-04-26 16:56 | 15.74109 | 64.21722 | 39884 ft | 495 kts | 320° |
| 2026-04-26 16:57 | 15.79429 | 64.17174 | 39884 ft | 495 kts | 320° |
| 2026-04-26 16:57 | 15.87426 | 64.10350 | 39887 ft | 497 kts | 320° |
| 2026-04-26 16:58 | 15.91871 | 64.06552 | 39887 ft | 496 kts | 320° |
| 2026-04-26 16:59 | 16.00736 | 63.98963 | 39886 ft | 497 kts | 320° |
| 2026-04-26 17:00 | 16.11401 | 63.89815 | 39882 ft | 496 kts | 320° |
| 2026-04-26 17:00 | 16.19376 | 63.82973 | 39887 ft | 496 kts | 320° |
| 2026-04-26 17:01 | 16.24659 | 63.78432 | 39886 ft | 495 kts | 320° |
| 2026-04-26 17:01 | 16.29973 | 63.73863 | 39889 ft | 495 kts | 320° |
| 2026-04-26 17:02 | 16.35281 | 63.69295 | 39889 ft | 493 kts | 321° |
| 2026-04-26 17:02 | 16.40560 | 63.64749 | 39889 ft | 492 kts | 320° |
| 2026-04-26 17:03 | 16.45845 | 63.60194 | 39886 ft | 492 kts | 321° |
| 2026-04-26 17:03 | 16.51131 | 63.55637 | 39888 ft | 492 kts | 321° |
| 2026-04-26 17:04 | 16.56373 | 63.51114 | 39889 ft | 492 kts | 320° |
| 2026-04-26 17:04 | 16.61646 | 63.46561 | 39896 ft | 492 kts | 321° |
| 2026-04-26 17:05 | 16.66911 | 63.42011 | 39891 ft | 490 kts | 321° |
| 2026-04-26 17:05 | 16.72132 | 63.37494 | 39893 ft | 487 kts | 321° |
| 2026-04-26 17:06 | 16.77339 | 63.32986 | 39895 ft | 485 kts | 321° |
| 2026-04-26 17:06 | 16.82528 | 63.28492 | 39867 ft | 486 kts | 321° |
| 2026-04-26 17:07 | 16.85138 | 63.26231 | 41387 ft | 492 kts | 320° |
| 2026-04-26 17:07 | 16.87783 | 63.23938 | 39798 ft | 494 kts | 321° |
| 2026-04-26 17:07 | 16.92998 | 63.19414 | 39897 ft | 487 kts | 321° |
| 2026-04-26 17:08 | 16.98199 | 63.14900 | 39895 ft | 486 kts | 321° |
| 2026-04-26 17:08 | 17.03379 | 63.10387 | 39894 ft | 485 kts | 321° |
| 2026-04-26 17:09 | 17.07613 | 63.06555 | 39892 ft | 484 kts | 320° |
| 2026-04-26 17:09 | 17.13534 | 63.01112 | 39892 ft | 484 kts | 320° |
| 2026-04-26 17:10 | 17.18608 | 62.96477 | 39897 ft | 484 kts | 320° |
| 2026-04-26 17:10 | 17.23650 | 62.91892 | 39898 ft | 482 kts | 320° |
| 2026-04-26 17:11 | 17.28718 | 62.87284 | 39897 ft | 482 kts | 320° |
| 2026-04-26 17:11 | 17.33782 | 62.82673 | 39893 ft | 482 kts | 320° |
| 2026-04-26 17:12 | 17.41353 | 62.75770 | 39898 ft | 479 kts | 321° |
| 2026-04-26 17:13 | 17.48860 | 62.68916 | 39897 ft | 478 kts | 321° |
| 2026-04-26 17:14 | 17.56380 | 62.62043 | 39900 ft | 478 kts | 320° |
| 2026-04-26 17:14 | 17.63898 | 62.55163 | 39903 ft | 478 kts | 321° |
| 2026-04-26 17:15 | 17.71411 | 62.48284 | 39905 ft | 476 kts | 321° |
| 2026-04-26 17:16 | 17.75549 | 62.44490 | 39903 ft | 474 kts | 321° |
| 2026-04-26 17:16 | 17.80516 | 62.39931 | 39903 ft | 473 kts | 321° |
| 2026-04-26 17:17 | 17.85471 | 62.35382 | 39903 ft | 473 kts | 321° |
| 2026-04-26 17:17 | 17.90430 | 62.30825 | 39903 ft | 474 kts | 321° |
| 2026-04-26 17:18 | 17.95389 | 62.26267 | 39906 ft | 474 kts | 321° |
| 2026-04-26 17:18 | 18.00318 | 62.21732 | 39900 ft | 473 kts | 321° |
| 2026-04-26 17:19 | 18.07722 | 62.14911 | 39909 ft | 471 kts | 321° |
| 2026-04-26 17:19 | 18.12644 | 62.10373 | 39908 ft | 471 kts | 321° |
| 2026-04-26 17:20 | 18.16741 | 62.06592 | 39908 ft | 471 kts | 321° |
| 2026-04-26 17:20 | 18.22462 | 62.01309 | 39908 ft | 471 kts | 321° |
| 2026-04-26 17:21 | 18.27380 | 61.96764 | 39908 ft | 470 kts | 321° |
| 2026-04-26 17:21 | 18.32278 | 61.92233 | 39909 ft | 468 kts | 321° |
| 2026-04-26 17:22 | 18.37169 | 61.87705 | 39908 ft | 467 kts | 321° |
| 2026-04-26 17:22 | 18.42044 | 61.83189 | 39908 ft | 467 kts | 321° |
| 2026-04-26 17:23 | 18.46921 | 61.78668 | 39908 ft | 467 kts | 321° |
| 2026-04-26 17:23 | 18.51796 | 61.74145 | 39910 ft | 467 kts | 321° |
| 2026-04-26 17:24 | 18.56661 | 61.69624 | 39908 ft | 466 kts | 321° |
| 2026-04-26 17:24 | 18.61520 | 61.65106 | 39908 ft | 465 kts | 321° |
| 2026-04-26 17:25 | 18.66348 | 61.60621 | 39908 ft | 465 kts | 321° |
| 2026-04-26 17:25 | 18.71210 | 61.56097 | 39908 ft | 465 kts | 321° |
| 2026-04-26 17:26 | 18.76063 | 61.51575 | 39909 ft | 465 kts | 321° |
| 2026-04-26 17:26 | 18.80918 | 61.47049 | 39905 ft | 465 kts | 320° |
| 2026-04-26 17:27 | 18.85764 | 61.42528 | 39908 ft | 464 kts | 320° |
| 2026-04-26 17:27 | 18.90606 | 61.38007 | 39908 ft | 464 kts | 320° |
| 2026-04-26 17:28 | 18.95443 | 61.33487 | 39904 ft | 464 kts | 320° |
| 2026-04-26 17:28 | 19.00276 | 61.28966 | 39908 ft | 464 kts | 320° |
| 2026-04-26 17:29 | 19.04285 | 61.25213 | 39907 ft | 463 kts | 320° |
| 2026-04-26 17:29 | 19.09908 | 61.19947 | 39909 ft | 461 kts | 320° |
| 2026-04-26 17:30 | 19.14711 | 61.15444 | 39908 ft | 461 kts | 320° |
| 2026-04-26 17:30 | 19.19478 | 61.10970 | 39908 ft | 461 kts | 320° |
| 2026-04-26 17:31 | 19.24279 | 61.06463 | 39908 ft | 461 kts | 320° |
| 2026-04-26 17:31 | 19.29083 | 61.01947 | 39911 ft | 461 kts | 320° |
| 2026-04-26 17:32 | 19.33869 | 60.97445 | 39906 ft | 459 kts | 320° |
| 2026-04-26 17:32 | 19.38633 | 60.92959 | 39909 ft | 458 kts | 320° |
| 2026-04-26 17:33 | 19.43392 | 60.88476 | 39906 ft | 458 kts | 320° |
| 2026-04-26 17:34 | 19.50541 | 60.81736 | 39908 ft | 458 kts | 320° |
| 2026-04-26 17:34 | 19.55298 | 60.77245 | 39906 ft | 458 kts | 320° |
| 2026-04-26 17:35 | 19.60024 | 60.72779 | 39912 ft | 457 kts | 320° |
| 2026-04-26 17:35 | 19.64766 | 60.68294 | 39911 ft | 456 kts | 320° |
| 2026-04-26 17:36 | 19.69505 | 60.63809 | 39908 ft | 456 kts | 320° |
| 2026-04-26 17:36 | 19.74236 | 60.59329 | 39911 ft | 456 kts | 320° |
| 2026-04-26 17:37 | 19.78974 | 60.54838 | 39911 ft | 456 kts | 320° |
| 2026-04-26 17:37 | 19.83705 | 60.50349 | 39911 ft | 455 kts | 320° |
| 2026-04-26 17:38 | 19.90782 | 60.43628 | 39910 ft | 454 kts | 320° |
| 2026-04-26 17:38 | 19.95449 | 60.39191 | 39911 ft | 453 kts | 320° |
| 2026-04-26 17:39 | 20.00173 | 60.34696 | 39908 ft | 453 kts | 320° |
| 2026-04-26 17:39 | 20.04925 | 60.30364 | 39911 ft | 451 kts | 326° |
| 2026-04-26 17:40 | 20.09331 | 60.27328 | 39910 ft | 450 kts | 330° |
| 2026-04-26 17:40 | 20.15579 | 60.23337 | 39911 ft | 450 kts | 330° |
| 2026-04-26 17:41 | 20.20973 | 60.19943 | 39908 ft | 450 kts | 330° |
| 2026-04-26 17:41 | 20.26359 | 60.16538 | 39906 ft | 450 kts | 330° |
| 2026-04-26 17:42 | 20.31741 | 60.13122 | 39910 ft | 449 kts | 330° |
| 2026-04-26 17:42 | 20.37059 | 60.09739 | 39908 ft | 448 kts | 330° |
| 2026-04-26 17:43 | 20.42414 | 60.06331 | 39903 ft | 448 kts | 330° |
| 2026-04-26 17:43 | 20.47761 | 60.02926 | 39903 ft | 448 kts | 330° |
| 2026-04-26 17:44 | 20.53115 | 59.99512 | 39902 ft | 448 kts | 330° |
| 2026-04-26 17:44 | 20.58428 | 59.96123 | 39904 ft | 447 kts | 330° |
| 2026-04-26 17:45 | 20.63772 | 59.92711 | 39901 ft | 447 kts | 330° |
| 2026-04-26 17:45 | 20.69110 | 59.89300 | 39900 ft | 447 kts | 330° |
| 2026-04-26 17:46 | 20.74447 | 59.85885 | 39895 ft | 446 kts | 330° |
| 2026-04-26 17:46 | 20.79744 | 59.82492 | 39894 ft | 446 kts | 330° |
| 2026-04-26 17:47 | 20.84177 | 59.79651 | 39892 ft | 446 kts | 330° |
| 2026-04-26 17:47 | 20.90394 | 59.75666 | 39892 ft | 446 kts | 330° |
| 2026-04-26 17:48 | 20.95715 | 59.72254 | 39889 ft | 446 kts | 330° |
| 2026-04-26 17:48 | 21.01030 | 59.68843 | 39889 ft | 446 kts | 330° |
| 2026-04-26 17:49 | 21.06350 | 59.65426 | 39884 ft | 446 kts | 330° |
| 2026-04-26 17:49 | 21.11623 | 59.62027 | 39884 ft | 445 kts | 330° |
| 2026-04-26 17:50 | 21.16938 | 59.58598 | 39876 ft | 445 kts | 330° |
| 2026-04-26 17:50 | 21.22247 | 59.55173 | 39878 ft | 445 kts | 330° |
| 2026-04-26 17:51 | 21.27558 | 59.51750 | 39875 ft | 445 kts | 330° |
| 2026-04-26 17:51 | 21.32868 | 59.48322 | 39879 ft | 445 kts | 330° |
| 2026-04-26 17:52 | 21.38178 | 59.44885 | 39870 ft | 445 kts | 330° |
| 2026-04-26 17:52 | 21.43442 | 59.41475 | 39864 ft | 444 kts | 330° |
| 2026-04-26 17:53 | 21.48743 | 59.38040 | 39865 ft | 444 kts | 330° |
| 2026-04-26 17:54 | 21.56689 | 59.32886 | 39870 ft | 444 kts | 330° |
| 2026-04-26 17:54 | 21.61985 | 59.29450 | 39872 ft | 443 kts | 330° |
| 2026-04-26 17:55 | 21.67225 | 59.26052 | 39881 ft | 442 kts | 330° |
| 2026-04-26 17:55 | 21.72489 | 59.22627 | 39881 ft | 442 kts | 330° |
| 2026-04-26 17:56 | 21.77748 | 59.19203 | 39881 ft | 442 kts | 330° |
| 2026-04-26 17:57 | 21.88272 | 59.12347 | 39886 ft | 442 kts | 329° |
| 2026-04-26 17:57 | 21.93533 | 59.08915 | 39886 ft | 441 kts | 329° |
| 2026-04-26 17:58 | 22.04001 | 59.02080 | 39893 ft | 441 kts | 329° |
| 2026-04-26 17:59 | 22.11856 | 58.96942 | 39894 ft | 439 kts | 329° |
| 2026-04-26 17:59 | 22.17090 | 58.93515 | 39895 ft | 439 kts | 329° |
| 2026-04-26 18:00 | 22.22324 | 58.90085 | 39895 ft | 439 kts | 329° |
| 2026-04-26 18:00 | 22.27519 | 58.86683 | 39897 ft | 439 kts | 329° |
| 2026-04-26 18:01 | 22.32747 | 58.83248 | 39898 ft | 439 kts | 329° |
| 2026-04-26 18:01 | 22.37973 | 58.79810 | 39898 ft | 438 kts | 329° |
| 2026-04-26 18:02 | 22.41424 | 58.77540 | 39895 ft | 438 kts | 329° |
| 2026-04-26 18:02 | 22.48354 | 58.72981 | 39901 ft | 438 kts | 329° |
| 2026-04-26 18:03 | 22.53567 | 58.69546 | 39895 ft | 438 kts | 329° |
| 2026-04-26 18:03 | 22.58770 | 58.66115 | 39897 ft | 438 kts | 329° |
| 2026-04-26 18:04 | 22.63977 | 58.62679 | 39896 ft | 438 kts | 329° |
| 2026-04-26 18:05 | 22.70896 | 58.58106 | 39896 ft | 438 kts | 329° |
| 2026-04-26 18:05 | 22.76098 | 58.54668 | 39893 ft | 438 kts | 329° |
| 2026-04-26 18:06 | 22.81300 | 58.51227 | 39892 ft | 438 kts | 329° |
| 2026-04-26 18:06 | 22.86494 | 58.47787 | 39891 ft | 437 kts | 329° |
| 2026-04-26 18:07 | 22.91674 | 58.44353 | 39887 ft | 436 kts | 328° |
| 2026-04-26 18:07 | 22.96843 | 58.40921 | 39886 ft | 435 kts | 328° |
| 2026-04-26 18:08 | 23.01982 | 58.37507 | 39882 ft | 435 kts | 328° |
| 2026-04-26 18:08 | 23.07157 | 58.34074 | 39891 ft | 435 kts | 328° |
| 2026-04-26 18:09 | 23.12308 | 58.30643 | 39881 ft | 434 kts | 328° |
| 2026-04-26 18:09 | 23.17454 | 58.27211 | 39882 ft | 434 kts | 328° |
| 2026-04-26 18:10 | 23.22602 | 58.23774 | 39880 ft | 434 kts | 328° |
| 2026-04-26 18:10 | 23.27743 | 58.20339 | 39881 ft | 434 kts | 328° |
| 2026-04-26 18:11 | 23.32852 | 58.16924 | 39862 ft | 434 kts | 328° |
| 2026-04-26 18:11 | 23.37906 | 58.13335 | 39873 ft | 434 kts | 322° |
| 2026-04-26 18:12 | 23.42132 | 58.08647 | 39865 ft | 435 kts | 310° |
| 2026-04-26 18:12 | 23.45739 | 58.03342 | 39873 ft | 436 kts | 308° |
| 2026-04-26 18:13 | 23.49233 | 57.97942 | 39863 ft | 436 kts | 307° |
| 2026-04-26 18:13 | 23.52723 | 57.92544 | 39867 ft | 435 kts | 307° |
| 2026-04-26 18:14 | 23.56227 | 57.87159 | 39861 ft | 435 kts | 307° |
| 2026-04-26 18:14 | 23.59711 | 57.81824 | 39871 ft | 435 kts | 308° |
| 2026-04-26 18:15 | 23.63390 | 57.76592 | 39871 ft | 434 kts | 310° |
| 2026-04-26 18:15 | 23.67163 | 57.71428 | 39857 ft | 434 kts | 310° |
| 2026-04-26 18:16 | 23.70911 | 57.66251 | 39865 ft | 435 kts | 310° |
| 2026-04-26 18:16 | 23.76483 | 57.58451 | 39858 ft | 433 kts | 309° |
| 2026-04-26 18:17 | 23.80186 | 57.53263 | 39853 ft | 433 kts | 309° |
| 2026-04-26 18:17 | 23.83861 | 57.48101 | 39859 ft | 433 kts | 309° |
| 2026-04-26 18:18 | 23.87564 | 57.42894 | 39861 ft | 433 kts | 309° |
| 2026-04-26 18:18 | 23.91258 | 57.37691 | 39850 ft | 433 kts | 309° |
| 2026-04-26 18:19 | 23.94949 | 57.32489 | 39865 ft | 433 kts | 309° |
| 2026-04-26 18:19 | 23.98642 | 57.27284 | 39855 ft | 433 kts | 309° |
| 2026-04-26 18:20 | 24.02324 | 57.22086 | 39536 ft | 432 kts | 308° |
| 2026-04-26 18:20 | 24.04172 | 57.19475 | 39301 ft | 434 kts | 308° |
| 2026-04-26 18:20 | 24.05397 | 57.17745 | 39090 ft | 432 kts | 308° |
| 2026-04-26 18:21 | 24.07817 | 57.14323 | 38386 ft | 427 kts | 309° |
| 2026-04-26 18:21 | 24.09636 | 57.11752 | 37689 ft | 426 kts | 308° |
| 2026-04-26 18:21 | 24.11443 | 57.09198 | 37032 ft | 424 kts | 308° |
| 2026-04-26 18:21 | 24.13244 | 57.06652 | 36396 ft | 422 kts | 308° |
| 2026-04-26 18:22 | 24.15040 | 57.04108 | 35730 ft | 421 kts | 308° |
| 2026-04-26 18:22 | 24.16828 | 57.01572 | 35055 ft | 420 kts | 308° |
| 2026-04-26 18:22 | 24.18615 | 56.99036 | 34337 ft | 421 kts | 308° |
| 2026-04-26 18:22 | 24.20410 | 56.96492 | 33545 ft | 423 kts | 308° |
| 2026-04-26 18:23 | 24.22205 | 56.93950 | 32948 ft | 420 kts | 308° |
| 2026-04-26 18:23 | 24.23994 | 56.91418 | 32381 ft | 421 kts | 307° |
| 2026-04-26 18:23 | 24.25782 | 56.88873 | 31818 ft | 421 kts | 307° |
| 2026-04-26 18:23 | 24.27567 | 56.86327 | 31248 ft | 421 kts | 306° |
| 2026-04-26 18:24 | 24.29332 | 56.83808 | 30683 ft | 421 kts | 306° |
| 2026-04-26 18:24 | 24.31119 | 56.81262 | 30110 ft | 421 kts | 305° |
| 2026-04-26 18:24 | 24.32907 | 56.78717 | 29470 ft | 420 kts | 305° |
| 2026-04-26 18:24 | 24.34688 | 56.76183 | 28879 ft | 419 kts | 305° |
| 2026-04-26 18:25 | 24.36458 | 56.73667 | 28313 ft | 415 kts | 305° |
| 2026-04-26 18:25 | 24.38212 | 56.71167 | 27764 ft | 411 kts | 305° |
| 2026-04-26 18:25 | 24.39945 | 56.68693 | 27189 ft | 407 kts | 305° |
| 2026-04-26 18:25 | 24.41664 | 56.66235 | 26646 ft | 404 kts | 305° |
| 2026-04-26 18:26 | 24.43402 | 56.63830 | 26071 ft | 402 kts | 309° |
| 2026-04-26 18:26 | 24.45258 | 56.61543 | 25530 ft | 399 kts | 309° |
| 2026-04-26 18:26 | 24.47129 | 56.59308 | 24978 ft | 396 kts | 310° |
| 2026-04-26 18:26 | 24.49005 | 56.57107 | 24438 ft | 393 kts | 310° |
| 2026-04-26 18:27 | 24.50875 | 56.54929 | 23872 ft | 391 kts | 310° |
| 2026-04-26 18:27 | 24.52740 | 56.52762 | 23274 ft | 388 kts | 310° |
| 2026-04-26 18:27 | 24.54589 | 56.50612 | 22681 ft | 385 kts | 310° |
| 2026-04-26 18:27 | 24.56421 | 56.48474 | 22112 ft | 382 kts | 310° |
| 2026-04-26 18:28 | 24.58233 | 56.46353 | 21551 ft | 379 kts | 310° |
| 2026-04-26 18:28 | 24.60008 | 56.44272 | 21000 ft | 376 kts | 310° |
| 2026-04-26 18:28 | 24.61790 | 56.42179 | 20422 ft | 373 kts | 310° |
| 2026-04-26 18:28 | 24.63560 | 56.40101 | 19884 ft | 372 kts | 310° |
| 2026-04-26 18:29 | 24.65324 | 56.38028 | 19318 ft | 370 kts | 311° |
| 2026-04-26 18:29 | 24.67085 | 56.35961 | 18768 ft | 369 kts | 311° |
| 2026-04-26 18:29 | 24.68837 | 56.33903 | 18179 ft | 369 kts | 311° |
| 2026-04-26 18:29 | 24.70655 | 56.31904 | 17548 ft | 370 kts | 317° |
| 2026-04-26 18:30 | 24.72800 | 56.30336 | 16977 ft | 372 kts | 332° |
| 2026-04-26 18:30 | 24.75197 | 56.29248 | 16399 ft | 372 kts | 338° |
| 2026-04-26 18:30 | 24.77664 | 56.28380 | 15835 ft | 371 kts | 341° |
| 2026-04-26 18:30 | 24.80149 | 56.27634 | 15295 ft | 370 kts | 343° |
| 2026-04-26 18:31 | 24.82602 | 56.26944 | 14749 ft | 368 kts | 343° |
| 2026-04-26 18:31 | 24.85060 | 56.26170 | 14199 ft | 364 kts | 337° |
| 2026-04-26 18:31 | 24.87256 | 56.24868 | 13764 ft | 355 kts | 321° |
| 2026-04-26 18:31 | 24.88917 | 56.22978 | 13624 ft | 333 kts | 303° |
| 2026-04-26 18:32 | 24.90136 | 56.20885 | 13509 ft | 316 kts | 297° |
| 2026-04-26 18:32 | 24.91216 | 56.18840 | 13402 ft | 301 kts | 297° |
| 2026-04-26 18:32 | 24.92229 | 56.16885 | 13279 ft | 287 kts | 296° |
| 2026-04-26 18:32 | 24.93193 | 56.15010 | 13155 ft | 276 kts | 297° |
| 2026-04-26 18:33 | 24.94127 | 56.13194 | 13029 ft | 268 kts | 296° |
| 2026-04-26 18:33 | 24.95035 | 56.11425 | 12804 ft | 264 kts | 297° |
| 2026-04-26 18:33 | 24.95938 | 56.09657 | 12478 ft | 265 kts | 296° |
| 2026-04-26 18:33 | 24.96835 | 56.07918 | 12150 ft | 261 kts | 297° |
| 2026-04-26 18:34 | 24.97873 | 56.06277 | 11906 ft | 262 kts | 307° |
| 2026-04-26 18:34 | 24.99101 | 56.04722 | 11714 ft | 273 kts | 308° |
| 2026-04-26 18:34 | 25.00379 | 56.03162 | 11509 ft | 275 kts | 309° |
| 2026-04-26 18:34 | 25.01665 | 56.01600 | 11295 ft | 275 kts | 310° |
| 2026-04-26 18:35 | 25.02949 | 56.00041 | 11091 ft | 274 kts | 310° |
| 2026-04-26 18:35 | 25.04224 | 55.98482 | 10903 ft | 272 kts | 309° |
| 2026-04-26 18:35 | 25.05487 | 55.96934 | 10695 ft | 270 kts | 310° |
| 2026-04-26 18:35 | 25.06749 | 55.95395 | 10472 ft | 270 kts | 310° |
| 2026-04-26 18:36 | 25.08006 | 55.93859 | 10273 ft | 269 kts | 310° |
| 2026-04-26 18:36 | 25.09255 | 55.92328 | 10071 ft | 266 kts | 309° |
| 2026-04-26 18:36 | 25.10486 | 55.90818 | 9874 ft | 264 kts | 310° |
| 2026-04-26 18:36 | 25.11710 | 55.89316 | 9656 ft | 263 kts | 310° |
| 2026-04-26 18:37 | 25.12919 | 55.87829 | 9453 ft | 261 kts | 309° |
| 2026-04-26 18:37 | 25.14127 | 55.86348 | 9266 ft | 257 kts | 309° |
| 2026-04-26 18:37 | 25.15312 | 55.84872 | 9062 ft | 257 kts | 308° |
| 2026-04-26 18:37 | 25.16347 | 55.83248 | 8866 ft | 259 kts | 301° |
| 2026-04-26 18:38 | 25.17297 | 55.81572 | 8681 ft | 255 kts | 300° |
| 2026-04-26 18:38 | 25.18215 | 55.79916 | 8491 ft | 251 kts | 300° |
| 2026-04-26 18:38 | 25.19122 | 55.78275 | 8307 ft | 250 kts | 300° |
| 2026-04-26 18:38 | 25.20030 | 55.76626 | 8142 ft | 254 kts | 300° |
| 2026-04-26 18:39 | 25.20718 | 55.74750 | 8113 ft | 272 kts | 283° |
| 2026-04-26 18:39 | 25.20710 | 55.72652 | 8114 ft | 279 kts | 256° |
| 2026-04-26 18:39 | 25.19748 | 55.70843 | 8075 ft | 279 kts | 229° |
| 2026-04-26 18:39 | 25.18147 | 55.69591 | 7939 ft | 285 kts | 206° |
| 2026-04-26 18:40 | 25.16208 | 55.69307 | 7815 ft | 286 kts | 174° |
| 2026-04-26 18:40 | 25.14453 | 55.70182 | 7714 ft | 275 kts | 141° |
| 2026-04-26 18:40 | 25.13355 | 55.71831 | 7628 ft | 262 kts | 119° |
| 2026-04-26 18:40 | 25.12532 | 55.73581 | 7536 ft | 251 kts | 119° |
| 2026-04-26 18:41 | 25.11727 | 55.75244 | 7424 ft | 241 kts | 120° |
| 2026-04-26 18:41 | 25.10920 | 55.76820 | 7339 ft | 230 kts | 121° |
| 2026-04-26 18:41 | 25.10124 | 55.78333 | 7125 ft | 226 kts | 122° |
| 2026-04-26 18:41 | 25.09321 | 55.79822 | 6898 ft | 226 kts | 123° |
| 2026-04-26 18:42 | 25.08504 | 55.81306 | 6660 ft | 226 kts | 122° |
| 2026-04-26 18:42 | 25.07685 | 55.82781 | 6458 ft | 224 kts | 123° |
| 2026-04-26 18:42 | 25.06833 | 55.84218 | 6246 ft | 224 kts | 129° |
| 2026-04-26 18:42 | 25.05613 | 55.85219 | 5991 ft | 217 kts | 165° |
| 2026-04-26 18:43 | 25.04155 | 55.85234 | 5742 ft | 209 kts | 202° |
| 2026-04-26 18:43 | 25.02858 | 55.84527 | 5511 ft | 208 kts | 215° |
| 2026-04-26 18:43 | 25.01676 | 55.83658 | 5262 ft | 205 kts | 223° |
| 2026-04-26 18:43 | 25.00820 | 55.82437 | 5046 ft | 199 kts | 253° |
| 2026-04-26 18:44 | 25.00696 | 55.80971 | 4919 ft | 192 kts | 288° |
| 2026-04-26 18:44 | 25.01329 | 55.79722 | 4819 ft | 186 kts | 305° |
| 2026-04-26 18:44 | 25.02043 | 55.78520 | 4725 ft | 189 kts | 304° |
| 2026-04-26 18:44 | 25.02761 | 55.77292 | 4614 ft | 191 kts | 304° |
| 2026-04-26 18:45 | 25.03457 | 55.76054 | 4461 ft | 190 kts | 305° |
| 2026-04-26 18:45 | 25.04140 | 55.74802 | 4362 ft | 190 kts | 304° |
| 2026-04-26 18:45 | 25.04812 | 55.73544 | 4244 ft | 191 kts | 303° |
| 2026-04-26 18:45 | 25.05482 | 55.72280 | 4117 ft | 190 kts | 303° |
| 2026-04-26 18:46 | 25.06152 | 55.71016 | 3987 ft | 192 kts | 302° |
| 2026-04-26 18:46 | 25.06833 | 55.69742 | 3968 ft | 194 kts | 303° |
| 2026-04-26 18:46 | 25.07534 | 55.68464 | 3972 ft | 195 kts | 303° |
| 2026-04-26 18:46 | 25.08246 | 55.67192 | 3974 ft | 194 kts | 303° |
| 2026-04-26 18:47 | 25.08958 | 55.65920 | 3962 ft | 196 kts | 303° |
| 2026-04-26 18:47 | 25.09660 | 55.64656 | 3969 ft | 196 kts | 303° |
| 2026-04-26 18:47 | 25.10364 | 55.63383 | 3973 ft | 193 kts | 304° |
| 2026-04-26 18:47 | 25.11059 | 55.62128 | 3968 ft | 191 kts | 303° |
| 2026-04-26 18:48 | 25.11750 | 55.60882 | 3961 ft | 190 kts | 303° |
| 2026-04-26 18:48 | 25.12440 | 55.59636 | 3956 ft | 191 kts | 303° |
| 2026-04-26 18:48 | 25.13131 | 55.58387 | 3794 ft | 189 kts | 303° |
| 2026-04-26 18:48 | 25.13812 | 55.57160 | 3558 ft | 187 kts | 303° |
| 2026-04-26 18:49 | 25.14490 | 55.55937 | 3289 ft | 187 kts | 303° |
| 2026-04-26 18:49 | 25.15162 | 55.54723 | 3027 ft | 183 kts | 303° |
| 2026-04-26 18:49 | 25.15814 | 55.53547 | 2803 ft | 178 kts | 303° |
| 2026-04-26 18:49 | 25.16440 | 55.52413 | 2601 ft | 166 kts | 302° |
| 2026-04-26 18:50 | 25.17014 | 55.51370 | 2385 ft | 150 kts | 303° |
| 2026-04-26 18:50 | 25.17526 | 55.50441 | 2212 ft | 135 kts | 304° |
| 2026-04-26 18:50 | 25.17994 | 55.49596 | 2043 ft | 126 kts | 303° |
| 2026-04-26 18:50 | 25.18446 | 55.48779 | 1875 ft | 124 kts | 304° |
| 2026-04-26 18:51 | 25.18744 | 55.48247 | 1768 ft | 122 kts | 304° |
| 2026-04-26 18:51 | 25.19336 | 55.47181 | 1570 ft | 122 kts | 303° |
| 2026-04-26 18:51 | 25.19629 | 55.46654 | 1458 ft | 122 kts | 304° |
| 2026-04-26 18:51 | 25.20065 | 55.45861 | 1310 ft | 119 kts | 304° |
| 2026-04-26 18:52 | 25.20498 | 55.45082 | 1156 ft | 119 kts | 303° |
| 2026-04-26 18:52 | 25.20709 | 55.44699 | 1071 ft | 119 kts | 303° |
| 2026-04-26 18:52 | 25.21143 | 55.43927 | 937 ft | 119 kts | 305° |
| 2026-04-26 18:52 | 25.21577 | 55.43147 | 788 ft | 120 kts | 299° |
| 2026-04-26 18:53 | 25.21986 | 55.42361 | 621 ft | 119 kts | 301° |
| 2026-04-26 18:53 | 25.22449 | 55.41598 | 458 ft | 121 kts | 301° |
| 2026-04-26 18:53 | 25.22883 | 55.40780 | 355 ft | 124 kts | 293° |
| 2026-04-26 18:53 | 25.23315 | 55.39964 | 142 ft | 120 kts | 298° |
| 2026-04-26 18:54 | 25.23750 | 55.39199 | 42 ft | 116 kts | 297° |
| 2026-04-26 18:54 | 25.24090 | 55.38580 | 37 ft | 61 kts | 302° |
| 2026-04-26 18:54 | 25.24261 | 55.38271 | 39 ft | 40 kts | 302° |
| 2026-04-26 18:54 | 25.24267 | 55.38099 | 36 ft | 19 kts | 220° |
| 2026-04-26 18:55 | 25.24217 | 55.38012 | 31 ft | 10 kts | 272° |
| 2026-04-26 18:55 | 25.24241 | 55.37938 | 30 ft | 12 kts | 292° |
| 2026-04-26 18:55 | 25.24266 | 55.37874 | 30 ft | 7 kts | 293° |
| 2026-04-26 18:55 | 25.24294 | 55.37819 | 30 ft | 9 kts | 310° |
| 2026-04-26 18:56 | 25.24350 | 55.37744 | 30 ft | 16 kts | 307° |
| 2026-04-26 18:56 | 25.24419 | 55.37627 | 30 ft | 21 kts | 301° |
| 2026-04-26 18:56 | 25.24502 | 55.37478 | 30 ft | 25 kts | 302° |
| 2026-04-26 18:56 | 25.24600 | 55.37307 | 30 ft | 28 kts | 302° |
| 2026-04-26 18:57 | 25.24702 | 55.37120 | 31 ft | 28 kts | 304° |
| 2026-04-26 18:57 | 25.24766 | 55.37002 | 30 ft | 24 kts | 287° |
| 2026-04-26 18:57 | 25.24757 | 55.36844 | 31 ft | 16 kts | 288° |
| 2026-04-26 18:57 | 25.24787 | 55.36717 | 29 ft | 18 kts | 285° |
| 2026-04-26 18:58 | 25.24835 | 55.36585 | 28 ft | 19 kts | 299° |
| 2026-04-26 18:58 | 25.24860 | 55.36483 | 28 ft | 11 kts | 237° |
| 2026-04-26 18:58 | 25.24820 | 55.36445 | 28 ft | 4 kts | 214° |
| 2026-04-26 18:58 | 25.24801 | 55.36432 | 28 ft | 2 kts | 212° |
| 2026-04-26 18:59 | 25.24793 | 55.36427 | 28 ft | 0 kts | 212° |